Del Rio International Airport Del Rio US
ICAO: KDRT
IATA: DRT
Category: Medium
Scheduled Services: No

Elevation: 1002 ft
TransAlt. 18000 ft.

Airport Communications:
APP:119.6
ASOS:118.525
CLNC DEL:120.5
DEP:119.6
SAN ANGELO RDO:122.3
CTAF/UNICOM:122.8

KDRT Zoom In..

If you have problems with the map follow the link
https://www.worldairports.se/pages/airport.php?
ICAO=KDRT

Runways:

(A) RW 13 length 6300 ft width 100 ft
ILS 111.90 / hdg 132

(B) RW 31 length 6300 ft width 100 ft
---- / hdg 312

Location; KDRT
Day. 22 / Time. 12.53 Zulu
* Altimeter: 30.03
* Temperature: 12° c. 53.6°f.
* Wind from: 130° Speed 06 kn.
Dewpoint: 11° c.
Visibility: 9 Statute Miles.
Clouds: Overcast 400 ft.

KDRT 221253Z AUTO 13006KT 9SM OVC004 12/11 A3003 RMK AO2 SLP162 T01170106 $


Wind From 130°
Speed 06 kn.

 
 
jpsmedia worldairports.se 2020   terms of use